This is the latest recevied weather packets stored in our database for station/object PU2ONU-13. If no packets are shown the sender has not sent any weather packets the latest 1 day(s).
| Time | Temp. | Humidity | Pressure | Rain* | Wind** | Luminosity | Snow |
|---|---|---|---|---|---|---|---|
| 1778019614 | 28.33° C | 48% | 1021 hPa | - | 0.45 m/s, 109° | - | - |
| 1778018414 | 28.33° C | 48% | 1020 hPa | - | 0.45 m/s, 109° | - | - |
| 1778017213 | 28.33° C | 47% | 1020 hPa | - | 0.45 m/s, 109° | - | - |
| 1778016013 | 28.89° C | 48% | 1021 hPa | - | 0.89 m/s, 105° | - | - |
| 1778014812 | 30° C | 44% | 1019 hPa | - | 0.89 m/s, 105° | - | - |
| 1778013613 | 31.11° C | 37% | 1019 hPa | - | 0.89 m/s, 105° | - | - |
| 1778012413 | 31.67° C | 32% | 1020 hPa | - | 0.89 m/s, 81° | - | - |
| 1778010013 | 32.22° C | 31% | 1019 hPa | - | 0.89 m/s, 81° | - | - |
| 1778008815 | 32.22° C | 30% | 1019 hPa | - | 0 m/s | - | - |
| 1778007612 | 32.22° C | 31% | 1018 hPa | - | 0 m/s | - | - |
| 1778006412 | 32.22° C | 32% | 1018 hPa | - | 0 m/s | - | - |
| 1778005213 | 32.22° C | 32% | 1019 hPa | - | 0.45 m/s, 285° | - | - |
| 1778004020 | 31.67° C | 33% | 1019 hPa | - | 0.45 m/s, 285° | - | - |
| 1778002813 | 30.56° C | 35% | 1019 hPa | - | 0 m/s | - | - |
| 1778001613 | 30.56° C | 34% | 1020 hPa | - | 0.45 m/s, 285° | - | - |
| 1777999213 | 30° C | 36% | 1019 hPa | - | 0 m/s | - | - |
| 1777998013 | 30° C | 37% | 1020 hPa | - | 0.45 m/s, 312° | - | - |
| 1777996813 | 29.44° C | 39% | 1020 hPa | - | 0 m/s | - | - |
| 1777995614 | 29.44° C | 39% | 1020 hPa | - | 0.45 m/s, 312° | - | - |
| 1777994413 | 28.89° C | 41% | 1022 hPa | - | 0 m/s | - | - |
| 1777993212 | 28.33° C | 42% | 1021 hPa | - | 0.45 m/s, 339° | - | - |
| 1777992017 | 28.33° C | 41% | 1021 hPa | - | 0 m/s | - | - |
| 1777990813 | 28.33° C | 43% | 1023 hPa | - | 0.45 m/s, 355° | - | - |
| 1777988413 | 27.78° C | 45% | 1022 hPa | - | 0 m/s | - | - |
| 1777987213 | 27.78° C | 47% | 1023 hPa | - | 0.45 m/s, 10° | - | - |
* Rain since midnight (hover to see other rain measurements)
** Current wind speed in m/s (hover to see current wind gust speed)